Home / US / Arizona / Parks

Parks, AZ Weather

Current Report for Sat May 26 2018

As of 4:57 PM MDT SAT MAY 26 2018

65°F 18°cParks weather conditions : Fair

Fair

Barometer: 29.98 inHg. falling

Humidity: 17%

Wind: SW. 25mph

Wind Gust: 27mph

Wind Chill: 63°F

Dew Point: 19°F rising

Visibility: 10.00mi.

Sunrise: 5:15 AM

Sunset: 7:33 PM

Moon Phase: Waxing Gibbous Moon

Daily and Hourly Summary

Loading Parks AZ Summary and Hourly data for today, tonight and tomorrow...
Forecast for Parks, AZ:
(Forecast based on TAF for )
1127 AM MST SAT MAY 26 2018
  
MORNING AFTERNOON EVENING OVERNIGHT MORNING
Partly Cloudy Partly Cloudy Partly Cloudy Partly Cloudy Clear
Partly
Cloudy
Partly
Cloudy
Partly
Cloudy
Partly
Cloudy
Clear
Original Encoded TAF:
Dated: 1127 AM MST SAT MAY 26 2018
2018/05/26 18:27
TAF KFLG 261725Z 2618/2718 22022G36KT P6SM FEW250 
     FM270230 23011KT P6SM SKC 
     FM270600 VRB03KT P6SM SKC

Temperatures Today (View More Charts)

Parks, AZ updates by locals

Write your own report, forecast, or traffic update:

Please note by clicking on "Post" you acknowledge that you have read the Terms of Service and the report and/or forecast you are posting is in compliance with such terms. Be respectful. An inappropriate post will be removed by a moderator. If you are not finding the information you want, please be sure to note the navigation tabs just above the breadcrumbs, which are links to other data relating to this city.